createdAt,value
2023-03-20T00:01:47.101Z,25.80
2023-03-20T00:04:13.912Z,26.17
2023-03-20T00:06:40.544Z,24.60
2023-03-20T00:09:08.359Z,23.63
2023-03-20T00:11:48.267Z,23.57
2023-03-20T00:14:16.010Z,21.70
2023-03-20T00:16:43.760Z,20.37
2023-03-20T00:19:32.089Z,19.97
2023-03-20T00:21:58.910Z,19.30
2023-03-20T00:24:25.524Z,20.20
2023-03-20T00:26:52.547Z,20.07
2023-03-20T00:29:19.191Z,20.03
2023-03-20T00:31:45.835Z,18.67
2023-03-20T00:34:14.173Z,20.27
2023-03-20T00:36:41.119Z,19.47
2023-03-20T00:39:07.812Z,19.17
2023-03-20T00:41:51.097Z,19.07
2023-03-20T00:44:30.047Z,18.83
2023-03-20T00:47:19.836Z,18.40
2023-03-20T00:49:47.241Z,18.47
2023-03-20T00:52:15.183Z,18.10
2023-03-20T00:54:41.682Z,19.33
2023-03-20T00:57:12.197Z,20.03
2023-03-20T00:59:41.569Z,18.97
2023-03-20T01:02:08.443Z,19.37
2023-03-20T01:04:36.876Z,20.57
2023-03-20T01:07:03.923Z,19.90
2023-03-20T01:09:30.510Z,20.23
2023-03-20T01:11:58.595Z,19.53
2023-03-20T01:14:25.321Z,19.50
2023-03-20T01:16:51.890Z,19.53
2023-03-20T01:19:18.445Z,19.80
2023-03-20T01:21:45.081Z,19.77
2023-03-20T01:24:11.919Z,19.27
2023-03-20T01:26:39.824Z,19.57
2023-03-20T01:29:23.309Z,18.57
2023-03-20T01:31:50.517Z,20.53
2023-03-20T01:34:17.185Z,20.83
2023-03-20T01:36:49.807Z,19.73
2023-03-20T01:39:17.138Z,19.90
2023-03-20T01:41:43.736Z,20.33
2023-03-20T01:44:18.049Z,19.87
2023-03-20T01:46:44.983Z,21.57
2023-03-20T01:49:20.738Z,22.37
2023-03-20T01:51:47.946Z,22.87
2023-03-20T01:54:19.537Z,22.70
2023-03-20T01:56:51.986Z,21.93
2023-03-20T01:59:21.803Z,22.67
2023-03-20T02:01:48.393Z,22.83
2023-03-20T02:04:16.885Z,22.97
2023-03-20T02:06:45.246Z,22.57
2023-03-20T02:09:11.867Z,23.53
2023-03-20T02:11:40.246Z,22.47
2023-03-20T02:14:07.454Z,23.07
2023-03-20T02:16:34.041Z,22.37
2023-03-20T02:19:00.826Z,23.43
2023-03-20T02:21:30.460Z,22.90
2023-03-20T02:24:00.294Z,22.50
2023-03-20T02:26:33.132Z,22.50
2023-03-20T02:29:18.680Z,22.90
2023-03-20T02:32:04.063Z,21.73
2023-03-20T02:35:00.163Z,22.37
2023-03-20T02:37:45.278Z,23.90
2023-03-20T02:40:17.760Z,24.80
2023-03-20T02:42:47.587Z,24.50
2023-03-20T02:45:28.210Z,25.10
2023-03-20T02:48:13.481Z,25.67
2023-03-20T02:50:46.076Z,25.87
2023-03-20T02:53:12.927Z,26.93
2023-03-20T02:55:46.097Z,28.10
2023-03-20T02:58:15.790Z,28.67
2023-03-20T03:00:47.560Z,28.77
2023-03-20T03:03:17.182Z,28.53
2023-03-20T03:05:49.993Z,28.20
2023-03-20T03:08:18.765Z,28.50
2023-03-20T03:10:47.928Z,29.00
2023-03-20T03:13:17.190Z,29.03
2023-03-20T03:15:46.255Z,30.73
2023-03-20T03:18:14.676Z,29.80
2023-03-20T03:20:43.291Z,30.13
2023-03-20T03:23:15.001Z,29.23
2023-03-20T03:25:42.091Z,28.97
2023-03-20T03:28:21.664Z,29.37
2023-03-20T03:30:49.112Z,27.63
2023-03-20T03:33:20.693Z,30.17
2023-03-20T03:35:47.920Z,28.10
2023-03-20T03:38:21.750Z,29.13
2023-03-20T03:41:06.647Z,28.53
2023-03-20T03:43:45.282Z,28.97
2023-03-20T03:46:14.658Z,27.83
2023-03-20T03:48:52.712Z,29.27
2023-03-20T03:51:27.908Z,28.43
2023-03-20T03:53:56.163Z,28.23
2023-03-20T03:56:24.056Z,29.80
2023-03-20T03:58:54.823Z,28.47
2023-03-20T04:01:22.492Z,28.50
2023-03-20T04:03:50.760Z,29.83
2023-03-20T04:06:17.947Z,30.43
2023-03-20T04:08:44.640Z,29.30
2023-03-20T04:11:18.565Z,28.73
2023-03-20T04:13:47.413Z,28.93
2023-03-20T04:16:33.936Z,28.27
2023-03-20T04:19:20.433Z,28.43
2023-03-20T04:21:47.399Z,29.50
2023-03-20T04:24:15.401Z,29.80
2023-03-20T04:26:42.042Z,30.80
2023-03-20T04:29:08.785Z,31.33
2023-03-20T04:31:35.920Z,28.77
2023-03-20T04:34:02.509Z,29.87
2023-03-20T04:36:29.463Z,30.80
2023-03-20T04:38:57.678Z,29.57
2023-03-20T04:41:24.316Z,30.30
2023-03-20T04:43:50.982Z,30.10
2023-03-20T04:46:17.824Z,30.80
2023-03-20T04:48:44.389Z,32.77
2023-03-20T04:51:11.367Z,31.57
2023-03-20T04:53:38.021Z,34.07
2023-03-20T04:56:04.640Z,32.90
2023-03-20T04:58:31.276Z,33.83
2023-03-20T05:00:57.887Z,32.47
2023-03-20T05:03:24.602Z,32.60
2023-03-20T05:05:51.120Z,33.00
2023-03-20T05:08:17.689Z,34.03
2023-03-20T05:10:44.272Z,33.13
2023-03-20T05:13:11.005Z,33.70
2023-03-20T05:15:37.895Z,31.67
2023-03-20T05:18:04.476Z,32.63
2023-03-20T05:20:31.024Z,32.90
2023-03-20T05:22:57.540Z,32.63
2023-03-20T05:25:24.119Z,32.33
2023-03-20T05:27:50.670Z,32.70
2023-03-20T05:30:17.429Z,31.90
2023-03-20T05:32:44.041Z,29.93
2023-03-20T05:35:11.073Z,31.07
2023-03-20T05:37:38.536Z,31.50
2023-03-20T05:40:06.116Z,31.00
2023-03-20T05:42:32.722Z,29.27
2023-03-20T05:44:59.294Z,30.47
2023-03-20T05:47:26.356Z,29.93
2023-03-20T05:49:53.004Z,31.63
2023-03-20T05:52:19.615Z,30.97
2023-03-20T05:54:46.191Z,30.47
2023-03-20T05:57:13.438Z,30.07
2023-03-20T05:59:40.119Z,30.07
2023-03-20T06:02:06.649Z,28.43
2023-03-20T06:04:35.005Z,28.73
2023-03-20T06:07:01.519Z,28.77
2023-03-20T06:09:28.117Z,27.60
2023-03-20T06:11:54.627Z,26.93
2023-03-20T06:14:21.125Z,26.73
2023-03-20T06:16:47.773Z,24.93
2023-03-20T06:19:14.420Z,24.90
2023-03-20T06:21:41.117Z,23.53
2023-03-20T06:24:07.765Z,22.83
2023-03-20T06:26:34.282Z,25.40
2023-03-20T06:29:00.880Z,23.47
2023-03-20T06:31:27.597Z,26.77
2023-03-20T06:33:54.190Z,22.23
2023-03-20T06:36:20.978Z,22.47
2023-03-20T06:38:47.553Z,22.83
2023-03-20T06:41:27.838Z,22.00
2023-03-20T06:44:00.228Z,22.80
2023-03-20T06:46:26.844Z,23.20
2023-03-20T06:48:53.592Z,23.60
2023-03-20T06:51:20.349Z,23.40
2023-03-20T06:53:46.895Z,24.43
2023-03-20T06:56:13.440Z,23.70
2023-03-20T06:58:40.105Z,23.57
2023-03-20T07:01:13.370Z,23.83
2023-03-20T07:03:40.278Z,22.27
2023-03-20T07:06:07.080Z,22.40
2023-03-20T07:08:35.281Z,21.83
2023-03-20T07:11:02.675Z,20.63
2023-03-20T07:13:29.738Z,20.57
2023-03-20T07:16:04.456Z,19.87
2023-03-20T07:18:31.685Z,21.30
2023-03-20T07:20:59.694Z,19.03
2023-03-20T07:23:26.535Z,19.83
2023-03-20T07:25:53.175Z,18.37
2023-03-20T07:28:19.921Z,20.37
2023-03-20T07:30:48.310Z,19.20
2023-03-20T07:33:19.365Z,18.33
2023-03-20T07:35:46.659Z,18.73
2023-03-20T07:38:13.692Z,18.10
2023-03-20T07:40:40.618Z,17.73
2023-03-20T07:43:07.568Z,18.57
2023-03-20T07:45:34.429Z,18.43
2023-03-20T07:48:04.482Z,19.67
2023-03-20T07:53:11.933Z,17.67
2023-03-20T07:55:38.976Z,18.60
2023-03-20T07:58:06.081Z,18.10
2023-03-20T08:00:34.243Z,18.67
2023-03-20T08:03:01.045Z,17.57
2023-03-20T08:05:27.778Z,16.90
2023-03-20T08:07:55.849Z,17.60
2023-03-20T08:10:42.416Z,16.07
2023-03-20T08:13:21.305Z,15.73
2023-03-20T08:15:48.862Z,16.43
2023-03-20T08:18:15.743Z,16.00
2023-03-20T08:20:43.536Z,17.10
2023-03-20T08:23:11.299Z,18.93
2023-03-20T08:25:39.124Z,17.17
2023-03-20T08:28:08.893Z,18.00
2023-03-20T08:30:35.758Z,19.30
2023-03-20T08:33:02.539Z,18.63
2023-03-20T08:35:33.683Z,16.90
2023-03-20T08:38:01.453Z,17.10
2023-03-20T08:40:29.115Z,15.83
2023-03-20T08:42:56.118Z,16.93
2023-03-20T08:45:26.249Z,17.17
2023-03-20T08:47:54.221Z,17.17
2023-03-20T08:50:21.609Z,15.93
2023-03-20T08:52:49.489Z,16.20
2023-03-20T08:55:18.241Z,12.93
2023-03-20T08:57:45.820Z,13.50
2023-03-20T09:00:14.518Z,12.27
2023-03-20T09:02:43.018Z,12.27
2023-03-20T09:05:10.261Z,10.80
2023-03-20T09:07:37.233Z,10.77
2023-03-20T09:10:04.698Z,8.80
2023-03-20T09:12:32.977Z,10.23
2023-03-20T09:14:59.926Z,8.80
2023-03-20T09:17:30.027Z,9.10
2023-03-20T09:19:56.987Z,8.77
2023-03-20T09:22:24.670Z,8.20
2023-03-20T09:24:51.481Z,7.53
2023-03-20T09:27:19.072Z,7.90
2023-03-20T09:29:46.039Z,7.50
2023-03-20T09:32:15.196Z,7.10
2023-03-20T09:34:42.404Z,7.23
2023-03-20T09:37:09.362Z,7.70
2023-03-20T09:39:44.104Z,6.80
2023-03-20T09:45:58.372Z,7.50
2023-03-20T09:48:31.325Z,6.83
2023-03-20T09:53:46.209Z,6.30
2023-03-20T09:56:26.379Z,6.30
2023-03-20T09:59:01.666Z,5.83
2023-03-20T10:01:37.150Z,6.07
2023-03-20T10:04:09.121Z,6.70
2023-03-20T10:06:36.176Z,5.90
2023-03-20T10:09:04.246Z,4.90
2023-03-20T10:11:30.748Z,5.60
2023-03-20T10:14:06.911Z,5.57
2023-03-20T10:16:39.818Z,5.70
2023-03-20T10:19:26.913Z,5.43
2023-03-20T10:22:12.720Z,5.53
2023-03-20T10:24:41.275Z,4.93
2023-03-20T10:27:26.248Z,6.17
2023-03-20T10:29:59.999Z,6.07
2023-03-20T10:32:33.133Z,6.07
2023-03-20T10:35:05.837Z,6.00
2023-03-20T10:37:39.884Z,6.03
2023-03-20T10:40:06.521Z,5.63
2023-03-20T10:42:37.157Z,6.23
2023-03-20T10:45:07.903Z,5.83
2023-03-20T10:47:39.428Z,6.30
2023-03-20T10:50:09.401Z,6.40
2023-03-20T10:52:46.155Z,6.57
2023-03-20T10:55:29.516Z,6.63
2023-03-20T10:58:16.421Z,6.13
2023-03-20T11:00:44.508Z,5.93
2023-03-20T11:03:32.155Z,6.10
2023-03-20T11:06:11.304Z,5.57
2023-03-20T11:08:40.941Z,5.50
2023-03-20T11:11:07.772Z,5.53
2023-03-20T11:13:38.792Z,4.97
2023-03-20T11:16:23.083Z,4.70
2023-03-20T11:18:51.134Z,4.40
2023-03-20T11:21:28.705Z,4.60
2023-03-20T11:23:56.958Z,5.00
2023-03-20T11:26:49.162Z,5.57
2023-03-20T11:29:51.263Z,5.90
2023-03-20T11:35:24.109Z,5.40
2023-03-20T11:38:13.704Z,5.73
2023-03-20T11:40:40.510Z,4.97
2023-03-20T11:43:12.945Z,4.90
2023-03-20T11:45:41.021Z,5.70
2023-03-20T11:48:15.288Z,4.73
2023-03-20T11:50:46.014Z,4.57
2023-03-20T11:53:38.256Z,4.43
2023-03-20T11:56:21.366Z,4.63
2023-03-20T11:58:51.889Z,4.07
2023-03-20T12:01:43.815Z,4.30
2023-03-20T12:06:59.158Z,4.90
2023-03-20T12:09:25.979Z,4.77
2023-03-20T12:11:56.353Z,4.30
2023-03-20T12:14:27.203Z,4.20
2023-03-20T12:16:57.833Z,4.70
2023-03-20T12:19:32.250Z,4.57
2023-03-20T12:22:07.743Z,4.27
2023-03-20T12:24:42.418Z,3.67
2023-03-20T12:27:41.420Z,4.20
2023-03-20T12:30:31.254Z,4.20
2023-03-20T12:33:17.834Z,3.50
2023-03-20T12:35:59.304Z,3.70
2023-03-20T12:38:33.739Z,3.70
2023-03-20T12:44:18.743Z,3.30
2023-03-20T12:47:03.996Z,3.70
2023-03-20T12:49:50.860Z,3.23
2023-03-20T12:52:17.492Z,3.27
2023-03-20T12:54:59.472Z,3.20
2023-03-20T12:57:34.991Z,3.23
2023-03-20T13:00:06.276Z,3.33
2023-03-20T13:02:33.819Z,3.43
2023-03-20T13:05:11.528Z,2.93
2023-03-20T13:07:57.773Z,3.10
2023-03-20T13:10:28.310Z,3.27
2023-03-20T13:13:13.698Z,3.10
2023-03-20T13:15:59.279Z,3.13
2023-03-20T13:18:38.021Z,3.20
2023-03-20T13:21:11.590Z,3.27
2023-03-20T13:23:49.109Z,3.50
2023-03-20T13:26:24.867Z,3.10
2023-03-20T13:29:03.822Z,3.07
2023-03-20T13:31:39.720Z,2.80
2023-03-20T13:34:11.515Z,3.27
2023-03-20T13:36:50.501Z,3.30
2023-03-20T13:42:10.579Z,3.00
2023-03-20T13:44:38.894Z,3.40
2023-03-20T13:47:17.601Z,3.63
2023-03-20T13:49:47.252Z,2.90
2023-03-20T13:52:19.933Z,3.10
2023-03-20T13:55:10.445Z,3.30
2023-03-20T13:57:46.563Z,3.13
2023-03-20T14:00:33.807Z,3.53
2023-03-20T14:03:19.757Z,3.50
2023-03-20T14:05:48.575Z,3.27
2023-03-20T14:08:21.535Z,3.23
2023-03-20T14:10:50.114Z,3.50
2023-03-20T14:13:20.252Z,3.27
2023-03-20T14:15:53.822Z,3.00
2023-03-20T14:18:22.986Z,3.20
2023-03-20T14:21:01.087Z,3.10
2023-03-20T14:23:33.939Z,3.40
2023-03-20T14:26:04.680Z,3.37
2023-03-20T14:28:43.615Z,3.50
2023-03-20T14:31:14.073Z,3.40
2023-03-20T14:33:44.839Z,3.50
2023-03-20T14:36:12.939Z,3.60
2023-03-20T14:38:44.773Z,3.47
2023-03-20T14:41:24.106Z,3.10
2023-03-20T14:43:50.884Z,2.70
2023-03-20T14:46:27.626Z,3.50
2023-03-20T14:51:46.049Z,3.27
2023-03-20T14:54:21.881Z,3.37
2023-03-20T14:56:52.324Z,3.17
2023-03-20T14:59:23.002Z,3.67
2023-03-20T15:01:58.867Z,3.60
2023-03-20T15:04:30.650Z,3.37
2023-03-20T15:06:57.309Z,3.47
2023-03-20T15:09:25.784Z,3.83
2023-03-20T15:11:52.855Z,3.73
2023-03-20T15:14:27.509Z,3.63
2023-03-20T15:16:58.757Z,3.33
2023-03-20T15:19:25.550Z,3.60
2023-03-20T15:21:53.869Z,2.80
2023-03-20T15:24:24.917Z,3.40
2023-03-20T15:26:54.145Z,3.50
2023-03-20T15:29:22.493Z,3.40
2023-03-20T15:32:12.341Z,3.00
2023-03-20T15:34:41.411Z,3.90
2023-03-20T15:37:28.399Z,3.53
2023-03-20T15:40:00.088Z,3.67
2023-03-20T15:42:27.741Z,3.57
2023-03-20T15:44:56.045Z,3.80
2023-03-20T15:47:24.099Z,3.80
2023-03-20T15:49:56.302Z,3.50
2023-03-20T15:52:43.563Z,3.50
2023-03-20T15:55:17.960Z,3.87
2023-03-20T15:57:47.304Z,4.40
2023-03-20T16:00:26.349Z,4.43
2023-03-20T16:03:05.181Z,4.67
2023-03-20T16:05:32.054Z,5.00
2023-03-20T16:08:11.833Z,5.17
2023-03-20T16:10:41.711Z,4.77
2023-03-20T16:13:12.493Z,5.60
2023-03-20T16:15:40.263Z,5.90
2023-03-20T16:18:07.337Z,5.90
2023-03-20T16:20:37.431Z,7.00
2023-03-20T16:23:07.061Z,7.43
2023-03-20T16:25:34.617Z,7.80
2023-03-20T16:28:01.611Z,8.87
2023-03-20T16:30:31.656Z,8.50
2023-03-20T16:33:05.700Z,9.17
2023-03-20T16:35:37.130Z,9.03
2023-03-20T16:38:14.524Z,8.90
2023-03-20T16:40:41.449Z,9.43
2023-03-20T16:43:16.761Z,10.13
2023-03-20T16:45:49.390Z,9.80
2023-03-20T16:48:16.066Z,9.77
2023-03-20T16:50:48.469Z,9.47
2023-03-20T16:53:16.411Z,9.33
2023-03-20T16:55:50.605Z,9.17
2023-03-20T16:58:21.998Z,8.70
2023-03-20T17:00:53.373Z,7.87
2023-03-20T17:03:26.477Z,7.90
2023-03-20T17:05:55.416Z,7.67
2023-03-20T17:08:30.903Z,6.87
2023-03-20T17:10:59.678Z,6.80
2023-03-20T17:13:26.419Z,7.33
2023-03-20T17:15:53.117Z,6.60
2023-03-20T17:18:19.885Z,7.17
2023-03-20T17:20:46.656Z,7.00
2023-03-20T17:23:19.392Z,7.40
2023-03-20T17:25:48.616Z,7.17
2023-03-20T17:28:20.717Z,7.00
2023-03-20T17:30:48.657Z,7.27
2023-03-20T17:33:16.523Z,7.00
2023-03-20T17:35:43.551Z,7.80
2023-03-20T17:38:21.658Z,7.83
2023-03-20T17:40:49.457Z,8.00
2023-03-20T17:43:16.933Z,7.90
2023-03-20T17:45:44.999Z,7.17
2023-03-20T17:48:16.390Z,8.63
2023-03-20T17:50:43.740Z,7.50
2023-03-20T17:53:32.377Z,8.47
2023-03-20T17:55:59.032Z,8.67
2023-03-20T17:58:25.797Z,8.73
2023-03-20T18:01:18.283Z,9.20
2023-03-20T18:03:45.351Z,9.13
2023-03-20T18:06:38.122Z,9.33
2023-03-20T18:09:09.890Z,9.17
2023-03-20T18:11:37.215Z,9.33
2023-03-20T18:14:04.224Z,9.03
2023-03-20T18:16:43.640Z,9.30
2023-03-20T18:22:42.246Z,7.63
2023-03-20T18:25:09.223Z,7.53
2023-03-20T18:27:38.661Z,7.60
2023-03-20T18:30:16.185Z,7.37
2023-03-20T18:32:42.865Z,8.00
2023-03-20T18:35:09.712Z,7.80
2023-03-20T18:37:36.616Z,7.67
2023-03-20T18:40:03.767Z,8.00
2023-03-20T18:42:34.244Z,9.13
2023-03-20T18:45:01.005Z,9.00
2023-03-20T18:47:27.871Z,8.90
2023-03-20T18:49:54.516Z,9.70
2023-03-20T18:52:21.173Z,9.00
2023-03-20T18:54:47.939Z,9.87
2023-03-20T18:57:14.970Z,10.50
2023-03-20T18:59:41.624Z,10.43
2023-03-20T19:02:08.441Z,11.50
2023-03-20T19:04:35.711Z,11.07
2023-03-20T19:07:02.494Z,10.80
2023-03-20T19:09:29.172Z,11.67
2023-03-20T19:11:56.008Z,12.23
2023-03-20T19:14:22.799Z,11.27
2023-03-20T19:16:51.136Z,11.77
2023-03-20T19:19:17.782Z,12.87
2023-03-20T19:21:45.076Z,12.17
2023-03-20T19:24:11.968Z,12.17
2023-03-20T19:26:38.660Z,12.40
2023-03-20T19:29:10.327Z,12.93
2023-03-20T19:31:37.404Z,11.90
2023-03-20T19:34:04.194Z,13.57
2023-03-20T19:36:32.536Z,13.30
2023-03-20T19:39:00.298Z,14.90
2023-03-20T19:41:28.831Z,13.57
2023-03-20T19:43:56.255Z,14.77
2023-03-20T19:46:38.632Z,14.80
2023-03-20T19:49:07.011Z,14.40
2023-03-20T19:51:33.968Z,14.53
2023-03-20T19:54:00.802Z,16.10
2023-03-20T19:56:27.532Z,16.93
2023-03-20T19:58:54.814Z,17.03
2023-03-20T20:01:23.426Z,17.40
2023-03-20T20:03:51.303Z,17.40
2023-03-20T20:06:21.311Z,17.67
2023-03-20T20:08:49.407Z,18.90
2023-03-20T20:11:20.649Z,18.93
2023-03-20T20:14:04.834Z,19.20
2023-03-20T20:16:32.967Z,19.70
2023-03-20T20:18:59.804Z,20.20
2023-03-20T20:24:13.296Z,20.17
2023-03-20T20:26:49.467Z,19.77
2023-03-20T20:29:20.394Z,21.50
2023-03-20T20:31:47.103Z,22.20
2023-03-20T20:39:47.465Z,22.80
2023-03-20T20:42:14.426Z,23.83
2023-03-20T20:44:41.377Z,24.67
2023-03-20T20:47:08.275Z,23.07
2023-03-20T20:49:34.924Z,25.27
2023-03-20T20:52:01.548Z,24.17
2023-03-20T20:54:29.042Z,24.20
2023-03-20T20:56:56.210Z,25.23
2023-03-20T20:59:22.854Z,25.50
2023-03-20T21:01:50.617Z,26.10
2023-03-20T21:04:17.556Z,26.73
2023-03-20T21:07:08.712Z,25.47
2023-03-20T21:09:30.744Z,27.20
2023-03-20T21:11:57.467Z,25.57
2023-03-20T21:14:24.297Z,28.00
2023-03-20T21:16:50.932Z,27.40
2023-03-20T21:19:17.548Z,27.37
2023-03-20T21:21:44.309Z,27.53
2023-03-20T21:24:30.886Z,27.37
2023-03-20T21:27:01.644Z,27.53
2023-03-20T21:29:28.395Z,26.43
2023-03-20T21:31:55.039Z,29.10
2023-03-20T21:34:21.968Z,28.10
2023-03-20T21:36:49.371Z,27.67
2023-03-20T21:39:17.047Z,27.93
2023-03-20T21:41:43.716Z,27.60
2023-03-20T21:44:16.730Z,27.30
2023-03-20T21:47:22.652Z,27.27
2023-03-20T21:50:23.523Z,26.67
2023-03-20T21:53:12.436Z,26.73
2023-03-20T21:56:09.335Z,28.57
2023-03-20T22:01:23.147Z,25.90
2023-03-20T22:03:52.005Z,25.43
2023-03-20T22:07:09.540Z,26.07
2023-03-20T22:12:52.867Z,25.77
2023-03-20T22:15:20.095Z,24.53
2023-03-20T22:17:56.230Z,25.77
2023-03-20T22:31:55.282Z,26.90
2023-03-20T22:34:39.833Z,27.33
2023-03-20T22:40:24.842Z,27.97
2023-03-20T22:42:51.492Z,29.03
2023-03-20T22:45:10.969Z,28.83
2023-03-20T22:47:37.833Z,28.70
2023-03-20T22:50:04.930Z,28.33
2023-03-20T22:52:47.715Z,30.43
2023-03-20T22:55:15.875Z,30.83
2023-03-20T22:57:50.060Z,30.77
2023-03-20T23:00:22.785Z,28.60
2023-03-20T23:02:49.581Z,29.70
2023-03-20T23:05:16.700Z,29.70
2023-03-20T23:07:43.387Z,30.53
2023-03-20T23:10:10.654Z,29.80
2023-03-20T23:12:38.211Z,29.17
2023-03-20T23:15:06.123Z,29.17
2023-03-20T23:17:32.872Z,30.53
2023-03-20T23:20:10.821Z,28.23
2023-03-20T23:22:42.594Z,29.83
2023-03-20T23:25:18.655Z,27.93
2023-03-20T23:27:50.585Z,27.67
2023-03-20T23:30:17.583Z,28.03
2023-03-20T23:32:44.173Z,25.23
2023-03-20T23:35:10.929Z,25.77
2023-03-20T23:37:37.568Z,26.40
2023-03-20T23:40:04.648Z,25.23
2023-03-20T23:42:31.455Z,25.97
2023-03-20T23:45:04.365Z,25.40
2023-03-20T23:47:43.971Z,26.23
2023-03-20T23:50:14.567Z,25.37
2023-03-20T23:52:49.995Z,24.70
2023-03-20T23:55:22.465Z,24.17
2023-03-20T23:57:49.258Z,24.40
